createdAt,value
2023-02-20T00:02:16.148Z,4.93
2023-02-20T00:04:42.704Z,4.92
2023-02-20T00:07:09.190Z,4.91
2023-02-20T00:09:35.664Z,4.91
2023-02-20T00:12:02.137Z,4.84
2023-02-20T00:14:30.134Z,4.82
2023-02-20T00:16:56.729Z,4.83
2023-02-20T00:19:23.458Z,4.87
2023-02-20T00:21:50.420Z,4.84
2023-02-20T00:24:17.080Z,4.91
2023-02-20T00:26:50.863Z,4.80
2023-02-20T00:29:21.364Z,4.77
2023-02-20T00:31:52.281Z,4.78
2023-02-20T00:34:18.770Z,4.76
2023-02-20T00:36:45.347Z,4.73
2023-02-20T00:39:11.833Z,4.73
2023-02-20T00:41:38.306Z,4.81
2023-02-20T00:44:04.893Z,4.76
2023-02-20T00:46:31.391Z,4.69
2023-02-20T00:48:57.888Z,4.79
2023-02-20T00:51:24.442Z,4.75
2023-02-20T00:53:50.900Z,4.70
2023-02-20T00:56:17.527Z,4.72
2023-02-20T00:58:43.996Z,4.74
2023-02-20T01:01:10.501Z,4.72
2023-02-20T01:03:36.981Z,4.79
2023-02-20T01:06:03.519Z,4.78
2023-02-20T01:08:30.025Z,4.75
2023-02-20T01:10:56.487Z,4.71
2023-02-20T01:13:23.013Z,4.75
2023-02-20T01:15:49.519Z,4.79
2023-02-20T01:18:16.291Z,4.71
2023-02-20T01:20:43.055Z,4.72
2023-02-20T01:23:12.940Z,4.76
2023-02-20T01:25:39.415Z,4.69
2023-02-20T01:28:05.902Z,4.78
2023-02-20T01:30:32.400Z,4.69
2023-02-20T01:32:58.923Z,4.80
2023-02-20T01:35:25.420Z,4.77
2023-02-20T01:37:51.890Z,4.71
2023-02-20T01:40:21.734Z,4.76
2023-02-20T01:42:48.183Z,4.72
2023-02-20T01:45:19.535Z,4.83
2023-02-20T01:47:46.087Z,4.73
2023-02-20T01:50:12.585Z,4.70
2023-02-20T01:52:39.074Z,4.77
2023-02-20T01:55:27.445Z,4.68
2023-02-20T01:57:58.533Z,4.69
2023-02-20T02:00:25.083Z,4.72
2023-02-20T02:02:55.340Z,4.70
2023-02-20T02:05:21.660Z,4.70
2023-02-20T02:07:48.234Z,4.70
2023-02-20T02:10:21.001Z,4.72
2023-02-20T02:12:48.731Z,4.70
2023-02-20T02:15:16.454Z,4.74
2023-02-20T02:18:23.189Z,4.73
2023-02-20T02:21:11.328Z,4.73
2023-02-20T02:24:05.736Z,4.69
2023-02-20T02:27:06.017Z,4.68
2023-02-20T02:29:37.737Z,4.68
2023-02-20T02:32:10.981Z,4.62
2023-02-20T02:34:56.178Z,4.66
2023-02-20T02:37:30.617Z,4.69
2023-02-20T02:40:05.093Z,4.67
2023-02-20T02:42:49.498Z,4.66
2023-02-20T02:45:25.024Z,4.70
2023-02-20T02:48:00.141Z,4.64
2023-02-20T02:50:38.041Z,4.58
2023-02-20T02:53:05.106Z,4.55
2023-02-20T02:55:33.750Z,4.52
2023-02-20T02:58:00.699Z,4.46
2023-02-20T03:00:35.687Z,4.47
2023-02-20T03:03:25.557Z,4.55
2023-02-20T03:06:09.567Z,4.46
2023-02-20T03:08:59.447Z,4.47
2023-02-20T03:11:27.183Z,4.48
2023-02-20T03:14:23.094Z,4.50
2023-02-20T03:17:17.283Z,4.56
2023-02-20T03:19:47.934Z,4.52
2023-02-20T03:22:25.386Z,4.51
2023-02-20T03:24:56.208Z,4.47
2023-02-20T03:27:40.774Z,4.49
2023-02-20T03:30:16.120Z,4.55
2023-02-20T03:33:01.674Z,4.50
2023-02-20T03:35:46.857Z,4.56
2023-02-20T03:38:32.059Z,4.51
2023-02-20T03:41:17.157Z,4.56
2023-02-20T03:43:44.354Z,4.50
2023-02-20T03:46:13.504Z,4.63
2023-02-20T03:48:44.075Z,4.67
2023-02-20T03:51:11.129Z,4.78
2023-02-20T03:53:37.926Z,4.76
2023-02-20T03:56:05.518Z,4.75
2023-02-20T03:58:32.177Z,4.79
2023-02-20T04:00:58.733Z,4.78
2023-02-20T04:03:26.613Z,4.82
2023-02-20T04:05:54.854Z,4.85
2023-02-20T04:08:28.010Z,4.92
2023-02-20T04:11:00.153Z,4.93
2023-02-20T04:13:26.628Z,5.01
2023-02-20T04:15:53.092Z,5.01
2023-02-20T04:18:20.260Z,5.02
2023-02-20T04:20:47.727Z,5.00
2023-02-20T04:23:15.951Z,5.03
2023-02-20T04:26:01.488Z,5.07
2023-02-20T04:28:28.304Z,5.21
2023-02-20T04:30:54.848Z,5.21
2023-02-20T04:33:21.372Z,5.16
2023-02-20T04:35:47.830Z,5.17
2023-02-20T04:38:14.300Z,5.16
2023-02-20T04:40:40.862Z,5.13
2023-02-20T04:43:07.334Z,5.15
2023-02-20T04:45:33.869Z,5.13
2023-02-20T04:48:00.324Z,5.15
2023-02-20T04:50:31.510Z,5.14
2023-02-20T04:52:58.334Z,5.08
2023-02-20T04:55:24.949Z,5.08
2023-02-20T04:57:53.499Z,5.12
2023-02-20T05:00:22.025Z,5.12
2023-02-20T05:02:48.530Z,5.17
2023-02-20T05:05:26.372Z,5.25
2023-02-20T05:08:00.300Z,5.23
2023-02-20T05:10:27.398Z,5.30
2023-02-20T05:12:54.317Z,5.25
2023-02-20T05:15:20.799Z,5.28
2023-02-20T05:17:47.289Z,5.26
2023-02-20T05:20:13.840Z,5.27
2023-02-20T05:22:40.308Z,5.36
2023-02-20T05:25:06.979Z,5.36
2023-02-20T05:27:34.606Z,5.31
2023-02-20T05:30:01.173Z,5.22
2023-02-20T05:32:28.816Z,5.24
2023-02-20T05:34:55.369Z,5.23
2023-02-20T05:37:22.673Z,5.31
2023-02-20T05:39:49.260Z,5.37
2023-02-20T05:42:15.812Z,5.29
2023-02-20T05:44:42.360Z,5.39
2023-02-20T05:47:08.845Z,5.33
2023-02-20T05:49:35.975Z,5.19
2023-02-20T05:52:02.585Z,5.17
2023-02-20T05:54:29.557Z,5.30
2023-02-20T05:56:56.070Z,5.31
2023-02-20T05:59:23.086Z,5.29
2023-02-20T06:01:52.667Z,5.35
2023-02-20T06:04:19.609Z,5.36
2023-02-20T06:06:46.224Z,5.35
2023-02-20T06:09:12.909Z,5.36
2023-02-20T06:11:39.447Z,5.42
2023-02-20T06:14:06.463Z,5.41
2023-02-20T06:16:33.084Z,5.31
2023-02-20T06:19:00.248Z,5.33
2023-02-20T06:21:27.236Z,5.26
2023-02-20T06:23:54.346Z,5.37
2023-02-20T06:26:21.417Z,5.44
2023-02-20T06:28:50.207Z,5.45
2023-02-20T06:31:24.476Z,5.34
2023-02-20T06:33:51.142Z,5.40
2023-02-20T06:36:22.537Z,5.31
2023-02-20T06:38:49.005Z,5.21
2023-02-20T06:41:15.486Z,5.28
2023-02-20T06:43:41.956Z,5.33
2023-02-20T06:46:08.413Z,5.34
2023-02-20T06:48:34.876Z,5.29
2023-02-20T06:51:01.331Z,5.35
2023-02-20T06:53:27.789Z,5.36
2023-02-20T06:55:54.257Z,5.35
2023-02-20T06:58:20.717Z,5.31
2023-02-20T07:00:47.182Z,5.31
2023-02-20T07:03:13.670Z,5.46
2023-02-20T07:05:40.161Z,5.35
2023-02-20T07:08:06.626Z,5.39
2023-02-20T07:10:33.101Z,5.43
2023-02-20T07:12:59.569Z,5.46
2023-02-20T07:15:26.015Z,5.40
2023-02-20T07:17:52.482Z,5.38
2023-02-20T07:20:19.044Z,5.36
2023-02-20T07:22:52.330Z,5.40
2023-02-20T07:25:18.810Z,5.46
2023-02-20T07:27:45.280Z,5.46
2023-02-20T07:30:12.178Z,5.53
2023-02-20T07:32:38.636Z,5.55
2023-02-20T07:35:08.217Z,5.60
2023-02-20T07:37:35.889Z,5.60
2023-02-20T07:40:02.463Z,5.55
2023-02-20T07:42:28.940Z,5.60
2023-02-20T07:44:55.663Z,5.60
2023-02-20T07:47:22.135Z,5.60
2023-02-20T07:49:48.612Z,5.58
2023-02-20T07:52:15.075Z,5.68
2023-02-20T07:54:41.622Z,5.64
2023-02-20T07:57:08.098Z,5.67
2023-02-20T07:59:34.625Z,5.59
2023-02-20T08:02:01.086Z,5.64
2023-02-20T08:04:27.644Z,5.66
2023-02-20T08:06:54.125Z,5.64
2023-02-20T08:09:20.596Z,5.65
2023-02-20T08:11:47.067Z,5.61
2023-02-20T08:14:13.712Z,5.52
2023-02-20T08:16:40.316Z,5.55
2023-02-20T08:19:06.831Z,5.57
2023-02-20T08:21:33.596Z,5.52
2023-02-20T08:24:00.083Z,5.52
2023-02-20T08:26:26.780Z,5.51
2023-02-20T08:28:53.327Z,5.44
2023-02-20T08:31:31.177Z,5.46
2023-02-20T08:33:58.818Z,5.48
2023-02-20T08:36:25.274Z,5.49
2023-02-20T08:38:51.732Z,5.47
2023-02-20T08:41:18.200Z,5.42
2023-02-20T08:43:44.752Z,5.47
2023-02-20T08:46:11.742Z,5.47
2023-02-20T08:48:38.516Z,5.50
2023-02-20T08:51:05.664Z,5.41
2023-02-20T08:53:32.328Z,5.47
2023-02-20T08:55:58.780Z,5.53
2023-02-20T08:58:25.339Z,5.54
2023-02-20T09:00:51.954Z,5.63
2023-02-20T09:03:18.638Z,5.70
2023-02-20T09:05:45.208Z,5.56
2023-02-20T09:08:11.685Z,5.54
2023-02-20T09:10:38.375Z,5.51
2023-02-20T09:13:04.928Z,5.54
2023-02-20T09:15:35.906Z,5.50
2023-02-20T09:18:02.412Z,5.60
2023-02-20T09:20:28.897Z,5.58
2023-02-20T09:22:57.563Z,5.57
2023-02-20T09:25:24.071Z,5.48
2023-02-20T09:27:50.642Z,5.44
2023-02-20T09:30:19.705Z,5.53
2023-02-20T09:32:50.329Z,5.44
2023-02-20T09:35:24.863Z,5.36
2023-02-20T09:37:51.522Z,5.45
2023-02-20T09:40:19.231Z,5.32
2023-02-20T09:42:58.696Z,5.37
2023-02-20T09:45:25.831Z,5.37
2023-02-20T09:47:55.238Z,5.38
2023-02-20T09:50:48.113Z,5.42
2023-02-20T09:53:28.971Z,5.45
2023-02-20T09:55:55.494Z,5.38
2023-02-20T09:58:27.905Z,5.39
2023-02-20T10:01:00.086Z,5.45
2023-02-20T10:03:56.627Z,5.51
2023-02-20T10:06:31.053Z,5.40
2023-02-20T10:08:57.617Z,5.44
2023-02-20T10:11:42.749Z,5.45
2023-02-20T10:14:45.884Z,5.56
2023-02-20T10:17:45.356Z,5.61
2023-02-20T10:20:16.148Z,5.56
2023-02-20T10:23:11.021Z,5.54
2023-02-20T10:25:43.121Z,5.66
2023-02-20T10:28:18.190Z,5.62
2023-02-20T10:30:46.798Z,5.54
2023-02-20T10:33:16.513Z,5.58
2023-02-20T10:35:52.050Z,5.57
2023-02-20T10:38:21.026Z,5.60
2023-02-20T10:40:48.922Z,5.46
2023-02-20T10:43:32.167Z,5.48
2023-02-20T10:46:20.449Z,5.60
2023-02-20T10:48:47.271Z,5.55
2023-02-20T10:51:34.909Z,5.58
2023-02-20T10:54:03.166Z,5.57
2023-02-20T10:56:39.119Z,5.58
2023-02-20T10:59:38.042Z,5.61
2023-02-20T11:02:05.580Z,5.62
2023-02-20T11:04:36.629Z,5.58
2023-02-20T11:07:07.243Z,5.63
2023-02-20T11:09:34.009Z,5.68
2023-02-20T11:12:00.531Z,5.68
2023-02-20T11:14:47.164Z,5.66
2023-02-20T11:17:19.279Z,5.72
2023-02-20T11:19:47.565Z,5.76
2023-02-20T11:22:14.333Z,5.74
2023-02-20T11:24:42.187Z,5.76
2023-02-20T11:27:22.169Z,5.63
2023-02-20T11:29:51.617Z,5.64
2023-02-20T11:32:26.398Z,5.72
2023-02-20T11:35:23.594Z,5.76
2023-02-20T11:37:55.688Z,5.78
2023-02-20T11:40:30.719Z,5.81
2023-02-20T11:43:08.979Z,5.76
2023-02-20T11:45:35.500Z,5.75
2023-02-20T11:48:12.502Z,5.67
2023-02-20T11:50:42.681Z,5.67
2023-02-20T11:53:23.419Z,5.70
2023-02-20T11:55:59.914Z,5.73
2023-02-20T11:58:27.407Z,5.81
2023-02-20T12:00:54.610Z,5.67
2023-02-20T12:03:23.179Z,5.68
2023-02-20T12:05:50.317Z,5.72
2023-02-20T12:08:37.753Z,5.80
2023-02-20T12:11:15.575Z,5.77
2023-02-20T12:13:47.512Z,5.80
2023-02-20T12:16:53.309Z,5.81
2023-02-20T12:19:25.742Z,5.87
2023-02-20T12:22:03.175Z,5.79
2023-02-20T12:24:52.688Z,5.89
2023-02-20T12:27:44.003Z,5.82
2023-02-20T12:30:27.633Z,5.79
2023-02-20T12:33:01.924Z,5.79
2023-02-20T12:35:32.778Z,5.86
2023-02-20T12:38:23.999Z,5.93
2023-02-20T12:41:19.426Z,5.93
2023-02-20T12:43:54.296Z,5.86
2023-02-20T12:46:24.926Z,5.87
2023-02-20T12:49:23.736Z,5.89
2023-02-20T12:51:59.649Z,5.86
2023-02-20T12:54:34.228Z,5.87
2023-02-20T12:57:06.462Z,5.85
2023-02-20T12:59:40.128Z,5.89
2023-02-20T13:02:18.585Z,5.87
2023-02-20T13:04:46.818Z,5.87
2023-02-20T13:07:47.496Z,5.89
2023-02-20T13:10:27.600Z,5.92
2023-02-20T13:12:54.519Z,5.93
2023-02-20T13:15:45.562Z,5.92
2023-02-20T13:18:36.923Z,5.94
2023-02-20T13:21:10.121Z,5.93
2023-02-20T13:23:37.785Z,5.99
2023-02-20T13:26:26.799Z,6.02
2023-02-20T13:28:53.561Z,6.05
2023-02-20T13:31:35.211Z,5.98
2023-02-20T13:34:04.544Z,6.04
2023-02-20T13:36:30.860Z,5.98
2023-02-20T13:39:20.196Z,5.95
2023-02-20T13:41:55.436Z,5.97
2023-02-20T13:44:27.899Z,6.09
2023-02-20T13:47:02.548Z,6.03
2023-02-20T13:49:50.375Z,6.10
2023-02-20T13:52:39.638Z,6.06
2023-02-20T13:55:13.198Z,6.05
2023-02-20T13:58:06.884Z,6.07
2023-02-20T14:00:48.672Z,6.13
2023-02-20T14:03:29.579Z,6.10
2023-02-20T14:06:02.769Z,6.15
2023-02-20T14:08:29.262Z,6.13
2023-02-20T14:10:55.769Z,6.11
2023-02-20T14:13:34.271Z,6.13
2023-02-20T14:16:06.078Z,6.13
2023-02-20T14:18:33.718Z,6.16
2023-02-20T14:21:20.025Z,6.20
2023-02-20T14:23:47.630Z,6.17
2023-02-20T14:26:33.553Z,6.18
2023-02-20T14:29:00.169Z,6.19
2023-02-20T14:31:33.084Z,6.21
2023-02-20T14:34:17.509Z,6.19
2023-02-20T14:36:49.860Z,6.20
2023-02-20T14:39:46.414Z,6.17
2023-02-20T14:42:18.541Z,6.13
2023-02-20T14:44:49.714Z,6.07
2023-02-20T14:47:16.806Z,6.12
2023-02-20T14:49:43.551Z,6.08
2023-02-20T14:52:09.865Z,6.14
2023-02-20T14:54:37.214Z,6.14
2023-02-20T14:57:04.939Z,6.16
2023-02-20T14:59:35.719Z,6.15
2023-02-20T15:02:14.652Z,6.15
2023-02-20T15:04:50.231Z,6.10
2023-02-20T15:07:16.780Z,6.08
2023-02-20T15:09:44.576Z,6.15
2023-02-20T15:12:28.963Z,6.18
2023-02-20T15:15:06.705Z,6.11
2023-02-20T15:17:34.365Z,6.17
2023-02-20T15:20:01.457Z,6.09
2023-02-20T15:22:32.834Z,6.13
2023-02-20T15:25:24.427Z,6.12
2023-02-20T15:28:10.761Z,6.10
2023-02-20T15:31:00.579Z,6.14
2023-02-20T15:33:27.590Z,6.15
2023-02-20T15:35:54.266Z,6.08
2023-02-20T15:38:20.836Z,6.13
2023-02-20T15:40:47.400Z,6.14
2023-02-20T15:43:37.109Z,6.09
2023-02-20T15:46:00.588Z,6.07
2023-02-20T15:48:27.099Z,6.20
2023-02-20T15:50:53.583Z,6.14
2023-02-20T15:53:24.901Z,6.17
2023-02-20T15:55:52.295Z,6.21
2023-02-20T15:58:36.553Z,6.20
2023-02-20T16:01:03.524Z,6.25
2023-02-20T16:03:33.958Z,6.18
2023-02-20T16:06:05.278Z,6.15
2023-02-20T16:08:32.042Z,6.09
2023-02-20T16:10:58.520Z,6.15
2023-02-20T16:13:33.529Z,6.15
2023-02-20T16:16:00.134Z,6.10
2023-02-20T16:18:26.918Z,6.10
2023-02-20T16:20:53.892Z,6.13
2023-02-20T16:23:20.419Z,6.14
2023-02-20T16:25:46.954Z,6.11
2023-02-20T16:28:13.827Z,6.16
2023-02-20T16:30:41.755Z,6.11
2023-02-20T16:33:21.378Z,6.16
2023-02-20T16:35:53.558Z,6.12
2023-02-20T16:38:21.417Z,6.07
2023-02-20T16:40:51.045Z,6.10
2023-02-20T16:43:20.173Z,6.08
2023-02-20T16:45:46.662Z,6.03
2023-02-20T16:48:15.069Z,6.09
2023-02-20T16:50:42.566Z,6.05
2023-02-20T16:53:10.232Z,6.00
2023-02-20T16:55:36.992Z,5.99
2023-02-20T16:58:04.213Z,6.03
2023-02-20T17:00:33.934Z,6.05
2023-02-20T17:03:00.625Z,6.02
2023-02-20T17:05:29.135Z,6.04
2023-02-20T17:07:56.572Z,6.05
2023-02-20T17:10:23.166Z,6.04
2023-02-20T17:12:49.894Z,6.05
2023-02-20T17:15:17.373Z,6.02
2023-02-20T17:17:44.140Z,6.03
2023-02-20T17:20:18.768Z,6.04
2023-02-20T17:22:48.415Z,6.03
2023-02-20T17:25:18.675Z,6.02
2023-02-20T17:27:45.147Z,6.04
2023-02-20T17:30:11.896Z,6.00
2023-02-20T17:32:38.408Z,6.02
2023-02-20T17:35:05.737Z,6.03
2023-02-20T17:37:34.585Z,6.12
2023-02-20T17:40:01.202Z,6.10
2023-02-20T17:42:27.801Z,6.04
2023-02-20T17:44:54.773Z,6.05
2023-02-20T17:47:22.060Z,6.12
2023-02-20T17:49:50.627Z,6.11
2023-02-20T17:52:17.185Z,6.13
2023-02-20T17:54:47.761Z,6.11
2023-02-20T17:57:15.010Z,6.14
2023-02-20T17:59:41.744Z,6.08
2023-02-20T18:02:09.320Z,6.15
2023-02-20T18:04:35.875Z,6.14
2023-02-20T18:07:02.365Z,6.11
2023-02-20T18:09:29.098Z,6.13
2023-02-20T18:11:55.666Z,6.10
2023-02-20T18:14:22.436Z,6.14
2023-02-20T18:16:48.931Z,6.18
2023-02-20T18:19:17.566Z,6.16
2023-02-20T18:21:48.683Z,6.20
2023-02-20T18:24:16.389Z,6.17
2023-02-20T18:26:42.871Z,6.24
2023-02-20T18:29:09.350Z,6.23
2023-02-20T18:31:35.871Z,6.22
2023-02-20T18:34:02.644Z,6.20
2023-02-20T18:36:29.755Z,6.22
2023-02-20T18:38:56.999Z,6.24
2023-02-20T18:41:23.767Z,6.24
2023-02-20T18:43:50.371Z,6.21
2023-02-20T18:46:33.930Z,6.24
2023-02-20T18:49:02.094Z,6.28
2023-02-20T18:51:33.346Z,6.23
2023-02-20T18:53:59.896Z,6.25
2023-02-20T18:56:26.459Z,6.25
2023-02-20T18:58:53.069Z,6.23
2023-02-20T19:01:20.627Z,6.31
2023-02-20T19:03:47.847Z,6.28
2023-02-20T19:06:34.577Z,6.32
2023-02-20T19:09:01.422Z,6.37
2023-02-20T19:11:28.278Z,6.27
2023-02-20T19:13:54.787Z,6.27
2023-02-20T19:16:21.328Z,6.32
2023-02-20T19:18:50.820Z,6.31
2023-02-20T19:21:17.929Z,6.31
2023-02-20T19:23:45.677Z,6.25
2023-02-20T19:26:12.491Z,6.25
2023-02-20T19:28:41.993Z,6.28
2023-02-20T19:31:09.607Z,6.30
2023-02-20T19:33:36.566Z,6.25
2023-02-20T19:36:03.140Z,6.30
2023-02-20T19:38:29.612Z,6.31
2023-02-20T19:40:56.093Z,6.28
2023-02-20T19:43:22.626Z,6.31
2023-02-20T19:45:49.257Z,6.21
2023-02-20T19:48:15.798Z,6.31
2023-02-20T19:50:42.286Z,6.31
2023-02-20T19:53:08.795Z,6.24
2023-02-20T19:55:35.375Z,6.34
2023-02-20T19:58:02.793Z,6.29
2023-02-20T20:00:29.764Z,6.25
2023-02-20T20:02:58.191Z,6.32
2023-02-20T20:05:24.996Z,6.32
2023-02-20T20:07:51.507Z,6.30
2023-02-20T20:10:19.485Z,6.28
2023-02-20T20:12:48.850Z,6.22
2023-02-20T20:15:18.393Z,6.29
2023-02-20T20:17:49.014Z,6.33
2023-02-20T20:20:16.671Z,6.29
2023-02-20T20:22:43.192Z,6.34
2023-02-20T20:25:10.589Z,6.36
2023-02-20T20:27:37.552Z,6.28
2023-02-20T20:30:05.891Z,6.37
2023-02-20T20:32:32.429Z,6.31
2023-02-20T20:34:59.000Z,6.33
2023-02-20T20:37:26.117Z,6.31
2023-02-20T20:39:52.987Z,6.31
2023-02-20T20:42:24.912Z,6.29
2023-02-20T20:44:55.599Z,6.32
2023-02-20T20:47:22.544Z,6.30
2023-02-20T20:49:49.020Z,6.33
2023-02-20T20:52:15.517Z,6.31
2023-02-20T20:54:42.105Z,6.34
2023-02-20T20:57:08.578Z,6.39
2023-02-20T20:59:37.629Z,6.37
2023-02-20T21:02:04.287Z,6.35
2023-02-20T21:04:30.809Z,6.38
2023-02-20T21:06:57.298Z,6.38
2023-02-20T21:09:23.836Z,6.42
2023-02-20T21:11:50.396Z,6.49
2023-02-20T21:14:18.325Z,6.51
2023-02-20T21:16:44.861Z,6.45
2023-02-20T21:19:11.575Z,6.49
2023-02-20T21:21:38.088Z,6.47
2023-02-20T21:24:05.065Z,6.46
2023-02-20T21:26:32.042Z,6.44
2023-02-20T21:28:58.579Z,6.48
2023-02-20T21:31:25.339Z,6.40
2023-02-20T21:33:53.290Z,6.51
2023-02-20T21:36:19.849Z,6.48
2023-02-20T21:38:46.358Z,6.49
2023-02-20T21:41:32.873Z,6.49
2023-02-20T21:44:18.073Z,6.51
2023-02-20T21:46:44.580Z,6.57
2023-02-20T21:49:11.152Z,6.57
2023-02-20T21:51:37.633Z,6.53
2023-02-20T21:54:04.166Z,6.53
2023-02-20T21:56:30.640Z,6.51
2023-02-20T21:59:05.007Z,6.63
2023-02-20T22:01:35.676Z,6.60
2023-02-20T22:04:02.442Z,6.62
2023-02-20T22:06:28.963Z,6.57
2023-02-20T22:09:14.231Z,6.54
2023-02-20T22:11:59.286Z,6.55
2023-02-20T22:14:44.584Z,6.55
2023-02-20T22:17:30.090Z,6.54
2023-02-20T22:20:15.590Z,6.59
2023-02-20T22:23:00.771Z,6.56
2023-02-20T22:25:46.035Z,6.64
2023-02-20T22:28:31.611Z,6.63
2023-02-20T22:31:18.471Z,6.59
2023-02-20T22:34:03.648Z,6.66
2023-02-20T22:36:48.823Z,6.73
2023-02-20T22:39:34.424Z,6.68
2023-02-20T22:42:23.317Z,6.69
2023-02-20T22:45:14.789Z,6.66
2023-02-20T22:48:00.905Z,6.65
2023-02-20T22:50:46.058Z,6.67
2023-02-20T22:53:31.248Z,6.70
2023-02-20T22:56:16.488Z,6.75
2023-02-20T22:59:01.809Z,6.70
2023-02-20T23:01:46.576Z,6.72
2023-02-20T23:04:31.812Z,6.79
2023-02-20T23:07:16.951Z,6.76
2023-02-20T23:10:02.172Z,6.72
2023-02-20T23:12:47.290Z,6.72
2023-02-20T23:15:32.098Z,6.76
2023-02-20T23:18:21.295Z,6.72
2023-02-20T23:21:09.769Z,6.75
2023-02-20T23:23:54.892Z,6.73
2023-02-20T23:26:40.076Z,6.74
2023-02-20T23:29:25.246Z,6.79
2023-02-20T23:32:10.150Z,6.77
2023-02-20T23:34:55.230Z,6.76
2023-02-20T23:37:39.958Z,6.74
2023-02-20T23:40:36.012Z,6.79
2023-02-20T23:43:25.290Z,6.82
2023-02-20T23:46:10.463Z,6.83
2023-02-20T23:48:55.583Z,6.86
2023-02-20T23:51:40.919Z,6.86
2023-02-20T23:54:26.124Z,6.87
2023-02-20T23:57:11.092Z,6.85
2023-02-20T23:59:56.212Z,6.81
